Terminal Aerodrome Forecast
Issued by NWS Hastings, NE

Home | Current Version | Previous Version | Text Only | Print | Product List | Glossary On
Versions: 1 2 3 4 5 6 7 8 9 10 11 12 13 14 15 16 17 18
000
FTUS43 KGID 181120
TAFGRI
TAF
KGRI 181120Z 1812/1912 17011KT P6SM FEW150
     FM181500 18019G26KT P6SM FEW150
     FM182100 18021G29KT P6SM SKC
     FM190200 18017KT P6SM SKC
     FM190500 18016KT P6SM SKC WS008/20050KT=

USA.gov is the U.S. government's official web portal to all federal, state and local government web resources and services.